createdAt,value
2023-04-30T18:30:11.452Z,7.55
2023-04-30T18:32:13.343Z,7.35
2023-04-30T18:34:15.606Z,6.10
2023-04-30T18:36:17.290Z,6.55
2023-04-30T18:38:18.996Z,6.05
2023-04-30T18:40:20.792Z,4.93
2023-04-30T18:42:24.586Z,4.50
2023-04-30T18:44:34.289Z,5.68
2023-04-30T18:46:36.123Z,5.72
2023-04-30T18:48:38.210Z,4.68
2023-04-30T18:50:41.761Z,4.90
2023-04-30T18:52:45.105Z,4.88
2023-04-30T18:54:46.786Z,4.90
2023-04-30T18:56:48.736Z,4.82
2023-04-30T18:58:50.444Z,4.93
2023-04-30T19:00:52.375Z,4.63
2023-04-30T19:02:54.189Z,4.70
2023-04-30T19:04:55.883Z,4.60
2023-04-30T19:06:57.610Z,4.78
2023-04-30T19:09:00.004Z,4.35
2023-04-30T19:11:01.651Z,4.57
2023-04-30T19:13:03.951Z,4.63
2023-04-30T19:15:07.919Z,4.70
2023-04-30T19:17:09.714Z,5.18
2023-04-30T19:19:11.435Z,4.10
2023-04-30T19:21:14.814Z,4.43
2023-04-30T19:23:16.525Z,4.13
2023-04-30T19:25:18.273Z,4.43
2023-04-30T19:27:20.149Z,4.50
2023-04-30T19:29:21.987Z,4.07
2023-04-30T19:31:23.784Z,3.97
2023-04-30T19:33:25.701Z,3.97
2023-04-30T19:35:27.502Z,3.50
2023-04-30T19:37:29.142Z,3.60
2023-04-30T19:39:31.750Z,3.67
2023-04-30T19:41:33.385Z,3.78
2023-04-30T19:43:35.050Z,3.88
2023-04-30T19:45:36.884Z,4.07
2023-04-30T19:47:38.650Z,4.30
2023-04-30T19:49:40.330Z,3.70
2023-04-30T19:51:42.011Z,3.42
2023-04-30T19:53:43.687Z,3.40
2023-04-30T19:55:46.001Z,3.42
2023-04-30T19:57:47.728Z,3.63
2023-04-30T19:59:49.348Z,3.50
2023-04-30T20:01:52.418Z,3.30
2023-04-30T20:03:54.245Z,3.10
2023-04-30T20:05:56.197Z,4.20
2023-04-30T20:07:58.689Z,3.20
2023-04-30T20:10:00.297Z,3.10
2023-04-30T20:12:03.572Z,3.95
2023-04-30T20:14:05.344Z,3.20
2023-04-30T20:16:09.771Z,3.97
2023-04-30T20:18:12.431Z,3.30
2023-04-30T20:20:14.386Z,3.45
2023-04-30T20:22:16.044Z,3.05
2023-04-30T20:24:18.068Z,3.38
2023-04-30T20:26:21.473Z,3.30
2023-04-30T20:28:23.165Z,3.97
2023-04-30T20:30:24.773Z,3.20
2023-04-30T20:32:26.483Z,2.80
2023-04-30T20:34:28.270Z,3.30
2023-04-30T20:36:32.229Z,2.97
2023-04-30T20:38:33.905Z,3.80
2023-04-30T20:40:35.608Z,3.20
2023-04-30T20:42:38.703Z,2.80
2023-04-30T20:44:40.592Z,3.30
2023-04-30T20:46:43.092Z,2.92
2023-04-30T20:48:44.715Z,3.30
2023-04-30T20:50:46.889Z,2.85
2023-04-30T20:52:48.657Z,2.85
2023-04-30T20:54:50.666Z,2.80
2023-04-30T20:56:52.360Z,3.03
2023-04-30T20:58:54.537Z,3.35
2023-04-30T21:00:56.676Z,2.72
2023-04-30T21:02:58.614Z,3.00
2023-04-30T21:05:04.312Z,2.60
2023-04-30T21:07:06.028Z,2.70
2023-04-30T21:09:07.711Z,2.70
2023-04-30T21:11:09.491Z,2.80
2023-04-30T21:13:12.767Z,2.83
2023-04-30T21:15:14.526Z,2.95
2023-04-30T21:17:16.188Z,2.80
2023-04-30T21:19:17.874Z,2.80
2023-04-30T21:21:19.790Z,2.92
2023-04-30T21:23:21.442Z,2.85
2023-04-30T21:25:23.146Z,2.47
2023-04-30T21:27:24.744Z,2.70
2023-04-30T21:29:26.443Z,2.72
2023-04-30T21:31:28.323Z,2.53
2023-04-30T21:33:31.064Z,3.17
2023-04-30T21:35:33.028Z,2.67
2023-04-30T21:37:34.938Z,2.97
2023-04-30T21:39:36.556Z,2.42
2023-04-30T21:41:38.243Z,2.47
2023-04-30T21:43:41.398Z,2.92
2023-04-30T21:45:43.621Z,2.70
2023-04-30T21:47:47.514Z,2.67
2023-04-30T21:49:49.225Z,3.15
2023-04-30T21:51:50.882Z,2.90
2023-04-30T21:53:52.564Z,2.50
2023-04-30T21:55:54.247Z,2.75
2023-04-30T21:57:55.931Z,2.80
2023-04-30T21:59:59.857Z,2.65
2023-04-30T22:02:07.331Z,2.67
2023-04-30T22:04:16.138Z,2.70
2023-04-30T22:06:17.820Z,2.75
2023-04-30T22:08:19.453Z,2.38
2023-04-30T22:10:21.043Z,2.20
2023-04-30T22:12:24.952Z,2.60
2023-04-30T22:14:26.859Z,2.50
2023-04-30T22:16:29.172Z,2.67
2023-04-30T22:18:31.063Z,2.30
2023-04-30T22:20:33.009Z,2.47
2023-04-30T22:22:34.690Z,2.58
2023-04-30T22:24:36.354Z,2.33
2023-04-30T22:26:38.007Z,2.50
2023-04-30T22:28:39.750Z,2.83
2023-04-30T22:30:41.431Z,2.40
2023-04-30T22:32:43.130Z,3.10
2023-04-30T22:34:45.097Z,2.65
